createdAt,value
2023-05-10T00:14:36.148Z,28.769
2023-05-10T00:29:37.847Z,28.315
2023-05-10T00:44:39.538Z,27.952
2023-05-10T00:59:41.207Z,28.138
2023-05-10T01:14:42.878Z,27.753
2023-05-10T01:29:44.603Z,28.058
2023-05-10T01:44:46.307Z,27.916
2023-05-10T01:59:48.027Z,28.031
2023-05-10T02:14:49.720Z,28.729
2023-05-10T02:29:51.446Z,28.736
2023-05-10T02:44:53.131Z,28.614
2023-05-10T02:59:54.852Z,29.288
2023-05-10T03:14:56.577Z,28.843
2023-05-10T03:29:58.310Z,28.849
2023-05-10T03:45:00.112Z,29.302
2023-05-10T04:00:01.832Z,30.236
2023-05-10T04:15:03.562Z,29.706
2023-05-10T04:30:05.316Z,29.017
2023-05-10T04:45:07.036Z,29.07
2023-05-10T05:00:08.753Z,29.617
2023-05-10T05:15:10.463Z,29.314
2023-05-10T05:30:12.173Z,28.433
2023-05-10T05:45:14.292Z,28.466
2023-05-10T06:00:16.189Z,28.396
2023-05-10T06:15:18.132Z,28.288
2023-05-10T06:30:19.987Z,28.322
2023-05-10T06:45:21.752Z,28.339
2023-05-10T07:00:23.507Z,28.412
2023-05-10T07:15:25.287Z,28.239
2023-05-10T07:30:26.988Z,28.235
2023-05-10T07:45:28.708Z,28.246
2023-05-10T08:00:30.408Z,28.371
2023-05-10T08:15:32.108Z,28.343
2023-05-10T08:30:33.795Z,28.543
2023-05-10T08:45:35.515Z,28.279
2023-05-10T09:00:37.292Z,28.27
2023-05-10T09:15:39.038Z,28.468
2023-05-10T09:30:40.776Z,28.45
2023-05-10T09:45:42.484Z,28.621
2023-05-10T10:00:44.185Z,28.336
2023-05-10T10:15:45.981Z,28.478
2023-05-10T10:30:47.720Z,28.414
2023-05-10T10:45:49.432Z,28.569
2023-05-10T11:00:51.192Z,28.474
2023-05-10T11:15:52.862Z,28.212
2023-05-10T11:30:54.536Z,27.995
2023-05-10T11:45:56.253Z,28.091
2023-05-10T12:00:57.939Z,28.412
2023-05-10T12:15:59.667Z,28.358
2023-05-10T12:31:01.297Z,28.526
2023-05-10T12:46:03.015Z,28.443
2023-05-10T13:01:05.972Z,28.474
2023-05-10T13:16:07.576Z,28.414
2023-05-10T13:31:09.269Z,28.793
2023-05-10T13:46:11.078Z,28.304
2023-05-10T14:01:12.832Z,28.988
2023-05-10T14:16:14.518Z,29.203
2023-05-10T14:31:16.256Z,29.092
2023-05-10T14:46:17.916Z,29.708
2023-05-10T15:01:19.687Z,29.804
2023-05-10T15:16:21.744Z,29.732
2023-05-10T15:31:23.641Z,29.51
2023-05-10T15:46:25.306Z,29.257
2023-05-10T16:01:27.177Z,29.022
2023-05-10T16:16:29.075Z,28.972
2023-05-10T16:31:30.997Z,29.006
2023-05-10T16:46:32.797Z,29.013
2023-05-10T17:01:34.579Z,28.946
2023-05-10T17:16:36.366Z,28.95
2023-05-10T17:31:38.128Z,29.219
2023-05-10T17:46:39.830Z,29.576
2023-05-10T18:01:41.590Z,29.176
2023-05-10T18:16:43.370Z,29.666
2023-05-10T18:31:45.111Z,30.485
2023-05-10T18:46:46.875Z,29.682
2023-05-10T19:01:51.022Z,30.153
2023-05-10T19:16:53.747Z,30.01
2023-05-10T19:31:55.508Z,30.646
2023-05-10T19:46:57.234Z,30.313
2023-05-10T20:01:59.218Z,30.172
2023-05-10T20:17:00.995Z,29.973
2023-05-10T20:32:02.817Z,30.213
2023-05-10T20:47:04.516Z,30.435
2023-05-10T21:02:06.225Z,30.379
2023-05-10T21:17:07.909Z,30.475
2023-05-10T21:32:09.837Z,29.883
2023-05-10T21:47:11.557Z,29.5
2023-05-10T22:02:13.237Z,29.614
2023-05-10T22:17:15.040Z,29.79
2023-05-10T22:32:16.758Z,30.725
2023-05-10T22:47:18.450Z,31.029
2023-05-10T23:02:20.075Z,31.689
2023-05-10T23:17:22.006Z,31.341
2023-05-10T23:32:23.685Z,30.895
2023-05-10T23:47:25.424Z,30.64
